Watford, Canada
Current Conditions -  °F | °C
As of 7:07 AM on Thursday 29 Jan 2015 (Local Time) from CYZR Reporting Station
Overcast Overcast  
Wind Chill: 18°   Ceiling: 6000
Heat Index: 28°   Visibility: 9mi
Dew Point: 14°   Wind: 13mph
Humidity: 55%   Direction: 160°SSE
Pressure: 29.86"   Gusts: 20mph
Location:  42.95°N, 81.88°W
Report Text: CYZR 291207Z AUTO 16011G17KT 9SM FEW040 SCT049 OVC060 M02/M10 A2986 RMK SLP121
Loading
Personal Weather Stations






























Interactive Weather Map New forecast layout! Learn more

10-Day Weather Forecast

Advertisements
Track Severe Weather on mobile